createdAt,value
2019-05-30T16:45:25.200Z,1.33
2019-05-30T16:51:24.113Z,1.40
2019-05-30T16:53:53.787Z,1.23
2019-05-30T16:56:23.590Z,1.40
2019-05-30T16:58:53.476Z,1.40
2019-05-30T17:01:24.221Z,1.20
2019-05-30T17:03:53.922Z,1.20
2019-05-30T17:06:23.389Z,1.50
2019-05-30T17:08:52.986Z,1.70
2019-05-30T17:11:23.553Z,1.40
2019-05-30T17:13:54.124Z,1.30
2019-05-30T17:16:24.192Z,1.40
2019-05-30T17:18:53.998Z,1.63
2019-05-30T17:21:24.709Z,1.40
2019-05-30T17:23:54.357Z,1.43
2019-05-30T17:26:23.910Z,1.37
2019-05-30T17:28:53.697Z,1.60
2019-05-30T17:31:23.935Z,1.20
2019-05-30T17:33:54.192Z,1.60
2019-05-30T17:36:24.873Z,1.50
2019-05-30T17:38:54.401Z,1.50
2019-05-30T17:41:24.790Z,2.20
2019-05-30T17:43:54.377Z,1.50
2019-05-30T17:46:23.949Z,1.60
2019-05-30T17:48:55.253Z,1.30
2019-05-30T17:51:25.876Z,1.90
2019-05-30T17:53:55.548Z,2.10
2019-05-30T17:56:26.135Z,2.20
2019-05-30T17:58:55.775Z,2.10
2019-05-30T18:01:26.312Z,2.40
2019-05-30T18:03:56.191Z,2.27
2019-05-30T18:06:26.580Z,2.00
2019-05-30T18:08:56.088Z,1.80
2019-05-30T18:11:26.872Z,1.90
2019-05-30T18:13:56.744Z,2.07
2019-05-30T18:16:27.153Z,1.97
2019-05-30T18:18:56.826Z,2.27
2019-05-30T18:21:27.413Z,1.90
2019-05-30T18:23:56.972Z,2.27
2019-05-30T18:26:27.552Z,1.87
2019-05-30T18:28:57.315Z,1.83
2019-05-30T18:31:28.012Z,2.03
2019-05-30T18:33:57.693Z,1.80
2019-05-30T18:36:28.423Z,2.03
2019-05-30T18:38:58.148Z,1.83
2019-05-30T18:41:28.813Z,2.07
2019-05-30T18:43:58.462Z,2.00
2019-05-30T18:46:29.168Z,2.27
2019-05-30T18:48:58.945Z,2.00
2019-05-30T18:51:28.797Z,2.30
2019-05-30T18:53:58.448Z,2.13
2019-05-30T18:56:28.714Z,2.60
2019-05-30T18:58:58.550Z,2.07
2019-05-30T19:01:29.682Z,2.40
2019-05-30T19:03:59.529Z,2.17
2019-05-30T19:06:29.962Z,2.57
2019-05-30T19:08:59.758Z,2.40
2019-05-30T19:11:33.406Z,2.10
2019-05-30T19:14:00.899Z,2.30
2019-05-30T19:16:32.332Z,2.23
2019-05-30T19:19:02.282Z,2.13
2019-05-30T19:21:32.234Z,2.40
2019-05-30T19:24:02.419Z,2.10
2019-05-30T19:26:32.469Z,2.07
2019-05-30T19:29:02.324Z,2.40
2019-05-30T19:31:32.669Z,2.40
2019-05-30T19:34:02.871Z,2.20
2019-05-30T19:36:33.066Z,2.13
2019-05-30T19:39:03.013Z,2.30
2019-05-30T19:41:46.917Z,2.20
2019-05-30T19:44:04.304Z,2.20
2019-05-30T19:46:34.262Z,2.33
2019-05-30T19:49:04.236Z,2.33
2019-05-30T19:51:34.974Z,2.47
2019-05-30T19:54:04.995Z,2.00
2019-05-30T19:56:37.391Z,2.60
2019-05-30T19:59:06.994Z,2.23
2019-05-30T20:01:36.534Z,2.20
2019-05-30T20:04:06.202Z,2.50
2019-05-30T20:06:36.616Z,2.10
2019-05-30T20:09:08.302Z,2.30
2019-05-30T20:11:39.249Z,2.20
2019-05-30T20:14:09.118Z,2.30
2019-05-30T20:16:39.944Z,2.27
2019-05-30T20:19:09.897Z,2.30
2019-05-30T20:21:39.945Z,2.50
2019-05-30T20:24:09.698Z,2.33
2019-05-30T20:26:40.596Z,2.57
2019-05-30T20:29:10.495Z,2.20
2019-05-30T20:31:41.407Z,2.60
2019-05-30T20:34:11.118Z,2.30
2019-05-30T20:36:40.912Z,2.80
2019-05-30T20:39:10.505Z,2.47
2019-05-30T20:41:40.976Z,2.30
2019-05-30T20:44:10.805Z,2.00
2019-05-30T20:46:41.159Z,2.43
2019-05-30T20:49:10.770Z,2.43
2019-05-30T20:51:41.310Z,2.50
2019-05-30T20:54:10.937Z,2.30
2019-05-30T20:56:41.480Z,2.50
2019-05-30T20:59:11.092Z,2.77
2019-05-30T21:01:41.676Z,2.47
2019-05-30T21:04:11.309Z,2.50
2019-05-30T21:06:41.525Z,2.37
2019-05-30T21:09:27.806Z,2.80
2019-05-30T21:11:46.415Z,2.23
2019-05-30T21:14:17.996Z,2.33
2019-05-30T21:16:49.908Z,2.40
2019-05-30T21:19:19.628Z,2.60
2019-05-30T21:21:49.337Z,2.53
2019-05-30T21:24:18.905Z,2.37
2019-05-30T21:26:48.605Z,2.20
2019-05-30T21:29:18.868Z,2.50
2019-05-30T21:31:49.988Z,2.30
2019-05-30T21:34:19.974Z,2.80
2019-05-30T21:36:49.588Z,2.30
2019-05-30T21:39:19.127Z,2.43
2019-05-30T21:41:48.695Z,1.97
2019-05-30T21:44:18.169Z,1.83
2019-05-30T21:46:48.910Z,2.30
2019-05-30T21:49:18.712Z,1.93
2019-05-30T21:51:48.241Z,2.23
2019-05-30T21:54:17.778Z,2.33
2019-05-30T21:56:48.419Z,2.20
2019-05-30T21:59:18.163Z,2.47
2019-05-30T22:01:48.686Z,2.37
2019-05-30T22:04:18.378Z,3.77
2019-05-30T22:06:48.940Z,2.73
2019-05-30T22:09:18.649Z,2.73
2019-05-30T22:11:48.167Z,2.90
2019-05-30T22:14:17.672Z,2.80
2019-05-30T22:16:47.904Z,2.40
2019-05-30T22:19:17.513Z,3.47
2019-05-30T22:21:48.084Z,3.20
2019-05-30T22:24:17.756Z,3.00
2019-05-30T22:26:48.239Z,2.77
2019-05-30T22:29:18.083Z,2.30
2019-05-30T22:31:48.512Z,2.30
2019-05-30T22:34:18.221Z,2.67
2019-05-30T22:36:48.840Z,2.63
2019-05-30T22:39:18.543Z,2.70
2019-05-30T22:41:48.016Z,2.77
2019-05-30T22:44:17.602Z,2.83
2019-05-30T22:46:48.085Z,2.60
2019-05-30T22:49:18.255Z,2.50
2019-05-30T22:51:48.914Z,2.80
2019-05-30T22:54:18.469Z,2.67
2019-05-30T22:56:47.886Z,2.70
2019-05-30T22:59:17.350Z,2.50
2019-05-30T23:01:46.947Z,2.83
2019-05-30T23:04:16.372Z,2.93
2019-05-30T23:06:46.250Z,2.60
2019-05-30T23:09:15.992Z,2.90
2019-05-30T23:11:45.615Z,3.00
2019-05-30T23:14:15.227Z,2.43
2019-05-30T23:16:46.045Z,2.90
2019-05-30T23:19:15.655Z,3.00
2019-05-30T23:21:45.083Z,3.00
2019-05-30T23:24:14.604Z,3.20
2019-05-30T23:26:44.195Z,2.90
2019-05-30T23:29:13.984Z,2.67
2019-05-30T23:31:43.434Z,3.20
2019-05-30T23:34:13.024Z,3.07
2019-05-30T23:36:42.598Z,3.43
2019-05-30T23:39:12.109Z,2.57
2019-05-30T23:41:41.749Z,2.90
2019-05-30T23:44:11.953Z,2.90
2019-05-30T23:46:41.814Z,2.80
2019-05-30T23:49:11.381Z,3.00
2019-05-30T23:51:40.828Z,2.67
2019-05-30T23:54:10.374Z,3.10
2019-05-30T23:56:42.278Z,2.70
2019-05-30T23:59:11.106Z,2.80
